createdAt,value
2018-05-10T00:00:37.338Z,99.99
2018-05-10T00:01:59.162Z,99.99
2018-05-10T00:03:21.278Z,99.99
2018-05-10T00:04:43.350Z,99.99
2018-05-10T00:06:04.878Z,99.99
2018-05-10T00:07:27.037Z,99.99
2018-05-10T00:08:48.900Z,99.99
2018-05-10T00:10:10.451Z,99.99
2018-05-10T00:11:31.733Z,99.99
2018-05-10T00:12:53.531Z,99.99
2018-05-10T00:14:15.360Z,99.99
2018-05-10T00:15:37.435Z,99.99
2018-05-10T00:16:59.504Z,99.99
2018-05-10T00:18:21.307Z,99.99
2018-05-10T00:19:43.114Z,99.99
2018-05-10T00:21:05.183Z,99.99
2018-05-10T00:22:26.977Z,99.99
2018-05-10T00:23:48.522Z,99.99
2018-05-10T00:25:10.325Z,99.99
2018-05-10T00:26:32.412Z,99.99
2018-05-10T00:27:54.585Z,99.99
2018-05-10T00:29:16.664Z,99.99
2018-05-10T00:30:38.202Z,99.99
2018-05-10T00:32:00.010Z,99.99
2018-05-10T00:33:22.094Z,99.99
2018-05-10T00:34:44.164Z,99.99
2018-05-10T00:36:05.982Z,99.99
2018-05-10T00:37:27.782Z,99.99
2018-05-10T00:38:49.837Z,99.99
2018-05-10T00:40:11.943Z,99.99
2018-05-10T00:41:34.020Z,99.99
2018-05-10T00:42:55.829Z,99.99
2018-05-10T00:44:17.872Z,99.99
2018-05-10T00:45:39.407Z,99.99
2018-05-10T00:47:01.206Z,99.99
2018-05-10T00:48:23.271Z,99.99
2018-05-10T00:49:45.058Z,99.99
2018-05-10T00:51:06.624Z,99.99
2018-05-10T00:52:28.677Z,99.99
2018-05-10T00:53:50.506Z,99.99
2018-05-10T00:55:12.324Z,99.99
2018-05-10T00:56:34.406Z,99.99
2018-05-10T00:57:56.200Z,99.99
2018-05-10T00:59:18.292Z,99.99
2018-05-10T01:00:40.366Z,99.99
2018-05-10T01:02:02.174Z,99.99
2018-05-10T01:03:23.714Z,99.99
2018-05-10T01:04:45.265Z,99.99
2018-05-10T01:06:07.568Z,99.99
2018-05-10T01:07:29.654Z,99.99
2018-05-10T01:08:51.192Z,99.99
2018-05-10T01:10:13.258Z,99.99
2018-05-10T01:11:34.531Z,99.99
2018-05-10T01:12:55.800Z,99.99
2018-05-10T01:14:17.873Z,99.99
2018-05-10T01:15:39.931Z,99.99
2018-05-10T01:17:01.474Z,99.99
2018-05-10T01:18:23.287Z,99.99
2018-05-10T01:19:45.106Z,99.99
2018-05-10T01:21:06.924Z,99.99
2018-05-10T01:22:28.984Z,99.99
2018-05-10T01:23:50.255Z,99.99
2018-05-10T01:25:12.037Z,99.99
2018-05-10T01:26:33.840Z,99.99
2018-05-10T01:27:55.994Z,99.99
2018-05-10T01:29:17.543Z,99.99
2018-05-10T01:30:39.607Z,99.99
2018-05-10T01:32:01.683Z,99.99
2018-05-10T01:33:23.479Z,99.99
2018-05-10T01:34:45.545Z,99.99
2018-05-10T01:36:07.616Z,99.99
2018-05-10T01:37:29.158Z,99.99
2018-05-10T01:38:50.953Z,99.99
2018-05-10T01:40:13.005Z,99.99
2018-05-10T01:41:34.855Z,99.99
2018-05-10T01:42:56.400Z,99.99
2018-05-10T01:44:18.213Z,99.99
2018-05-10T01:45:39.500Z,99.99
2018-05-10T01:47:01.052Z,99.99
2018-05-10T01:48:22.851Z,99.99
2018-05-10T01:49:44.899Z,99.99
2018-05-10T01:51:06.702Z,99.99
2018-05-10T01:52:28.500Z,99.99
2018-05-10T01:53:50.042Z,99.99
2018-05-10T01:55:11.851Z,99.99
2018-05-10T01:56:33.659Z,99.99
2018-05-10T01:57:55.478Z,99.99
2018-05-10T01:59:17.549Z,99.99
2018-05-10T02:00:39.615Z,99.99
2018-05-10T02:02:01.701Z,99.99
2018-05-10T02:03:23.235Z,99.99
2018-05-10T02:04:45.352Z,99.99
2018-05-10T02:06:07.431Z,99.99
2018-05-10T02:07:29.498Z,99.99
2018-05-10T02:08:51.569Z,99.99
2018-05-10T02:10:13.355Z,99.99
2018-05-10T02:11:34.884Z,99.99
2018-05-10T02:12:56.699Z,99.99
2018-05-10T02:14:18.241Z,99.99
2018-05-10T02:15:40.044Z,99.99
2018-05-10T02:17:01.852Z,99.99
2018-05-10T02:18:23.653Z,99.99
2018-05-10T02:19:45.788Z,99.99
2018-05-10T02:21:07.848Z,99.99
2018-05-10T02:22:29.383Z,99.99
2018-05-10T02:23:51.179Z,99.99
2018-05-10T02:25:13.240Z,99.99
2018-05-10T02:26:35.301Z,99.99
2018-05-10T02:27:56.839Z,99.99
2018-05-10T02:29:18.646Z,99.99
2018-05-10T02:30:40.185Z,99.99
2018-05-10T02:32:01.987Z,99.99
2018-05-10T02:33:24.052Z,99.99
2018-05-10T02:34:45.861Z,99.99
2018-05-10T02:36:07.935Z,99.99
2018-05-10T02:37:29.820Z,99.99
2018-05-10T02:38:51.618Z,99.99
2018-05-10T02:40:13.447Z,99.99
2018-05-10T02:41:35.525Z,99.99
2018-05-10T02:42:57.591Z,99.99
2018-05-10T02:44:19.138Z,99.99
2018-05-10T02:45:40.670Z,99.99
2018-05-10T02:47:02.722Z,99.99
2018-05-10T02:48:24.785Z,99.99
2018-05-10T02:49:46.599Z,99.99
2018-05-10T02:51:08.401Z,99.99
2018-05-10T02:52:29.952Z,99.99
2018-05-10T02:53:51.753Z,99.99
2018-05-10T02:55:13.551Z,99.99
2018-05-10T02:56:35.652Z,99.99
2018-05-10T02:57:57.728Z,99.99
2018-05-10T02:59:19.541Z,99.99
2018-05-10T03:00:41.356Z,99.99
2018-05-10T03:02:02.896Z,99.99
2018-05-10T03:03:24.967Z,99.99
2018-05-10T03:04:46.517Z,99.99
2018-05-10T03:06:08.604Z,99.99
2018-05-10T03:07:30.402Z,99.99
2018-05-10T03:08:52.467Z,99.99
2018-05-10T03:10:14.531Z,99.99
2018-05-10T03:11:36.360Z,99.99
2018-05-10T03:12:58.172Z,99.99
2018-05-10T03:14:19.723Z,99.99
2018-05-10T03:15:41.784Z,99.99
2018-05-10T03:17:03.872Z,99.99
2018-05-10T03:18:25.922Z,99.99
2018-05-10T03:19:47.723Z,99.99
2018-05-10T03:21:09.267Z,99.99
2018-05-10T03:22:31.073Z,99.99
2018-05-10T03:23:53.137Z,99.99
2018-05-10T03:25:14.927Z,99.99
2018-05-10T03:26:36.988Z,99.99
2018-05-10T03:27:58.622Z,99.99
2018-05-10T03:29:20.452Z,99.99
2018-05-10T03:30:42.519Z,99.99
2018-05-10T03:32:04.585Z,99.99
2018-05-10T03:33:26.803Z,99.99
2018-05-10T03:34:48.610Z,99.99
2018-05-10T03:36:10.664Z,99.99
2018-05-10T03:37:31.941Z,99.99
2018-05-10T03:38:53.471Z,99.99
2018-05-10T03:40:15.010Z,99.99
2018-05-10T03:41:37.361Z,99.99
2018-05-10T03:42:59.413Z,99.99
2018-05-10T03:44:21.200Z,99.99
2018-05-10T03:45:42.985Z,99.99
2018-05-10T03:47:05.057Z,99.99
2018-05-10T03:48:27.132Z,99.99
2018-05-10T03:49:49.195Z,99.99
2018-05-10T03:51:10.984Z,99.99
2018-05-10T03:52:32.249Z,99.99
2018-05-10T03:53:54.316Z,99.99
2018-05-10T03:55:16.412Z,99.99
2018-05-10T03:56:38.209Z,99.99
2018-05-10T03:58:00.279Z,99.99
2018-05-10T03:59:22.156Z,99.99
2018-05-10T04:00:43.686Z,99.99
2018-05-10T04:02:05.737Z,99.99
2018-05-10T04:03:27.268Z,99.99
2018-05-10T04:04:48.823Z,99.99
2018-05-10T04:06:10.771Z,99.99
2018-05-10T04:07:32.305Z,99.99
2018-05-10T04:08:54.363Z,99.99
2018-05-10T04:10:15.921Z,99.99
2018-05-10T04:11:37.737Z,99.99
2018-05-10T04:12:59.809Z,99.99
2018-05-10T04:14:21.619Z,99.99
2018-05-10T04:15:43.558Z,99.99
2018-05-10T04:17:05.611Z,99.99
2018-05-10T04:18:27.414Z,99.99
2018-05-10T04:19:49.479Z,99.99
2018-05-10T04:21:11.310Z,99.99
2018-05-10T04:22:33.112Z,99.99
2018-05-10T04:23:55.185Z,99.99
2018-05-10T04:25:16.978Z,99.99
2018-05-10T04:26:38.247Z,99.99
2018-05-10T04:28:00.093Z,99.99
2018-05-10T04:29:21.883Z,99.99
2018-05-10T04:30:43.690Z,99.99
2018-05-10T04:32:05.753Z,99.99
2018-05-10T04:33:27.832Z,99.99
2018-05-10T04:34:49.627Z,99.99
2018-05-10T04:36:11.699Z,99.99
2018-05-10T04:37:33.503Z,99.99
2018-05-10T04:38:55.584Z,99.99
2018-05-10T04:40:17.389Z,99.99
2018-05-10T04:41:39.179Z,99.99
2018-05-10T04:43:01.249Z,99.99
2018-05-10T04:44:23.073Z,99.99
2018-05-10T04:45:45.159Z,99.99
2018-05-10T04:47:06.954Z,99.99
2018-05-10T04:48:29.017Z,99.99
2018-05-10T04:49:50.817Z,99.99
2018-05-10T04:51:12.608Z,99.99
2018-05-10T04:52:34.683Z,99.99
2018-05-10T04:53:56.482Z,99.99
2018-05-10T04:55:18.643Z,99.99
2018-05-10T04:56:40.451Z,99.99
2018-05-10T04:58:02.513Z,99.99
2018-05-10T04:59:24.311Z,99.99
2018-05-10T05:00:46.107Z,99.99
2018-05-10T05:02:08.184Z,99.99
2018-05-10T05:03:30.296Z,99.99
2018-05-10T05:04:52.190Z,99.99
2018-05-10T05:06:14.267Z,99.99
2018-05-10T05:07:36.332Z,99.99
2018-05-10T05:08:58.263Z,99.99
2018-05-10T05:10:20.160Z,99.99
2018-05-10T05:11:41.959Z,99.99
2018-05-10T05:13:04.199Z,97.86
2018-05-10T05:14:26.027Z,92.88
2018-05-10T05:15:48.111Z,89.39
2018-05-10T05:17:09.924Z,86.48
2018-05-10T05:18:31.719Z,84.78
2018-05-10T05:19:53.512Z,83.75
2018-05-10T05:21:15.321Z,81.76
2018-05-10T05:22:37.546Z,79.41
2018-05-10T05:23:59.094Z,77.12
2018-05-10T05:25:20.909Z,75.64
2018-05-10T05:26:42.458Z,74.48
2018-05-10T05:28:04.319Z,73.79
2018-05-10T05:29:26.138Z,73.38
2018-05-10T05:30:48.225Z,71.82
2018-05-10T05:32:10.299Z,70.82
2018-05-10T05:33:32.120Z,69.68
2018-05-10T05:34:53.679Z,69.17
2018-05-10T05:36:15.495Z,68.71
2018-05-10T05:37:37.346Z,66.99
2018-05-10T05:38:59.163Z,66.73
2018-05-10T05:40:20.970Z,66.24
2018-05-10T05:41:42.787Z,65.66
2018-05-10T05:43:04.869Z,64.9
2018-05-10T05:44:27.234Z,63.87
2018-05-10T05:45:49.050Z,63.77
2018-05-10T05:47:11.153Z,62.66
2018-05-10T05:48:33.242Z,61.61
2018-05-10T05:49:55.332Z,60.1
2018-05-10T05:51:17.499Z,59.64
2018-05-10T05:52:39.054Z,58.62
2018-05-10T05:54:00.866Z,57.5
2018-05-10T05:55:22.929Z,56.35
2018-05-10T05:56:45.011Z,54.74
2018-05-10T05:58:06.824Z,54.66
2018-05-10T05:59:28.396Z,54
2018-05-10T06:00:50.625Z,53.74
2018-05-10T06:02:12.450Z,52.38
2018-05-10T06:03:34.554Z,52.28
2018-05-10T06:04:56.373Z,53.41
2018-05-10T06:06:18.206Z,53.85
2018-05-10T06:07:40.286Z,53.95
2018-05-10T06:09:02.370Z,53.09
2018-05-10T06:10:24.466Z,52.45
2018-05-10T06:11:46.017Z,51.99
2018-05-10T06:13:08.179Z,51.99
2018-05-10T06:14:29.998Z,50.85
2018-05-10T06:15:52.217Z,51.42
2018-05-10T06:17:14.797Z,51.3
2018-05-10T06:18:36.884Z,50.9
2018-05-10T06:19:58.696Z,49.97
2018-05-10T06:21:20.776Z,49.6
2018-05-10T06:22:42.348Z,48.36
2018-05-10T06:24:04.165Z,47.6
2018-05-10T06:25:26.252Z,47.44
2018-05-10T06:26:48.337Z,46.28
2018-05-10T06:28:10.164Z,47.17
2018-05-10T06:29:32.264Z,45.81
2018-05-10T06:30:54.370Z,45.93
2018-05-10T06:32:16.463Z,44.49
2018-05-10T06:33:38.283Z,43.91
2018-05-10T06:35:00.376Z,43.71
2018-05-10T06:36:22.471Z,43.99
2018-05-10T06:37:44.381Z,43.89
2018-05-10T06:39:06.039Z,43.77
2018-05-10T06:40:27.539Z,43.87
2018-05-10T06:41:49.119Z,44.27
2018-05-10T06:43:10.965Z,44.94
2018-05-10T06:44:32.789Z,43.38
2018-05-10T06:45:54.343Z,44.59
2018-05-10T06:47:16.167Z,45.51
2018-05-10T06:48:37.994Z,46.3
2018-05-10T06:50:00.111Z,47.22
2018-05-10T06:51:21.703Z,47.38
2018-05-10T06:52:43.532Z,48.24
2018-05-10T06:54:05.365Z,46.51
2018-05-10T06:55:26.952Z,45.47
2018-05-10T06:56:48.793Z,44.84
2018-05-10T06:58:10.347Z,44.46
2018-05-10T06:59:32.157Z,43.87
2018-05-10T07:00:54.269Z,43.79
2018-05-10T07:02:16.374Z,44.68
2018-05-10T07:03:38.201Z,45.63
2018-05-10T07:05:00.032Z,48.51
2018-05-10T07:06:22.133Z,51.52
2018-05-10T07:07:44.225Z,53.98
2018-05-10T07:09:06.316Z,56.59
2018-05-10T07:10:28.302Z,60.27
2018-05-10T07:11:50.127Z,62.7
2018-05-10T07:13:11.961Z,64.48
2018-05-10T07:14:33.255Z,66.53
2018-05-10T07:15:55.085Z,69.68
2018-05-10T07:17:17.185Z,71.26
2018-05-10T07:18:39.291Z,72.69
2018-05-10T07:20:01.393Z,73.33
2018-05-10T07:21:23.572Z,74.69
2018-05-10T07:22:45.660Z,75.14
2018-05-10T07:24:07.496Z,76.31
2018-05-10T07:25:29.761Z,76.5
2018-05-10T07:26:51.606Z,76.85
2018-05-10T07:28:13.476Z,76.95
2018-05-10T07:29:35.329Z,76.5
2018-05-10T07:30:57.167Z,76.4
2018-05-10T07:32:19.273Z,75.98
2018-05-10T07:33:41.352Z,76.85
2018-05-10T07:35:03.164Z,76.46
2018-05-10T07:36:25.269Z,76.85
2018-05-10T07:37:46.566Z,76.56
2018-05-10T07:39:08.653Z,76.27
2018-05-10T07:40:30.573Z,76.44
2018-05-10T07:41:53.144Z,75.08
2018-05-10T07:43:15.688Z,74.44
2018-05-10T07:44:38.237Z,75.12
2018-05-10T07:46:00.524Z,76.05
2018-05-10T07:47:23.012Z,76.69
2018-05-10T07:48:44.481Z,76.98
2018-05-10T07:50:06.306Z,77.67
2018-05-10T07:51:28.382Z,76.83
2018-05-10T07:52:50.190Z,76.97
2018-05-10T07:54:11.756Z,75.25
2018-05-10T07:55:33.841Z,74.61
2018-05-10T07:56:55.948Z,73.77
2018-05-10T07:58:18.049Z,74.16
2018-05-10T07:59:39.617Z,74.32
2018-05-10T08:01:01.701Z,75.31
2018-05-10T08:02:24.025Z,75.05
2018-05-10T08:03:46.217Z,74.12
2018-05-10T08:05:08.315Z,74.06
2018-05-10T08:06:30.405Z,73.02
2018-05-10T08:07:51.991Z,72.34
2018-05-10T08:09:14.087Z,71.54
2018-05-10T08:10:35.665Z,71.15
2018-05-10T08:11:57.491Z,69.43
2018-05-10T08:13:19.584Z,69.82
2018-05-10T08:14:41.443Z,69.92
2018-05-10T08:16:03.685Z,69.26
2018-05-10T08:17:26.430Z,68.62
2018-05-10T08:18:49.019Z,67.68
2018-05-10T08:20:11.328Z,67.93
2018-05-10T08:21:33.905Z,69.3
2018-05-10T08:22:56.114Z,70.21
2018-05-10T08:24:18.729Z,70.57
2018-05-10T08:25:41.295Z,70.73
2018-05-10T08:27:03.881Z,72.84
2018-05-10T08:28:26.470Z,73.68
2018-05-10T08:29:49.047Z,73.88
2018-05-10T08:31:11.345Z,74.19
2018-05-10T08:32:33.570Z,75.56
2018-05-10T08:33:56.108Z,75.81
2018-05-10T08:35:18.660Z,75.32
2018-05-10T08:36:41.092Z,76.84
2018-05-10T08:38:04.181Z,77.58
2018-05-10T08:39:26.458Z,77.2
2018-05-10T08:40:49.046Z,77.74
2018-05-10T08:42:10.975Z,77.55
2018-05-10T08:43:33.223Z,78.77
2018-05-10T08:44:56.082Z,79.84
2018-05-10T08:46:19.153Z,81.84
2018-05-10T08:47:41.427Z,82.42
2018-05-10T08:49:03.668Z,82.9
2018-05-10T08:50:26.245Z,82.28
2018-05-10T08:51:48.981Z,83.15
2018-05-10T08:53:12.041Z,82.97
2018-05-10T08:54:34.623Z,84.66
2018-05-10T08:55:56.755Z,84.22
2018-05-10T08:57:19.310Z,83.39
2018-05-10T08:58:41.534Z,83.84
2018-05-10T09:00:03.976Z,82.97
2018-05-10T09:01:26.264Z,84.12
2018-05-10T09:02:48.770Z,83.25
2018-05-10T09:04:11.595Z,83.54
2018-05-10T09:05:34.181Z,82.97
2018-05-10T09:06:56.827Z,84.32
2018-05-10T09:08:19.092Z,83.74
2018-05-10T09:09:41.293Z,84.38
2018-05-10T09:11:03.580Z,85.25
2018-05-10T09:12:25.428Z,85.06
2018-05-10T09:13:47.890Z,82.63
2018-05-10T09:15:09.930Z,84.61
2018-05-10T09:16:32.500Z,86.51
2018-05-10T09:17:54.774Z,85.29
2018-05-10T09:19:17.036Z,85.49
2018-05-10T09:20:39.583Z,85.58
2018-05-10T09:22:01.869Z,85.35
2018-05-10T09:23:23.803Z,86.32
2018-05-10T09:24:46.520Z,85.25
2018-05-10T09:26:09.679Z,87.43
2018-05-10T09:27:31.674Z,86.16
2018-05-10T09:28:54.009Z,87.58
2018-05-10T09:30:16.600Z,87.82
2018-05-10T09:31:39.302Z,87.24
2018-05-10T09:33:01.852Z,87.63
2018-05-10T09:34:24.180Z,90.06
2018-05-10T09:35:46.449Z,93.54
2018-05-10T09:37:08.958Z,91.08
2018-05-10T09:38:31.218Z,91.31
2018-05-10T09:39:53.486Z,91.02
2018-05-10T09:41:15.845Z,91.89
2018-05-10T09:42:38.124Z,90.93
2018-05-10T09:44:00.684Z,89.28
2018-05-10T09:45:22.934Z,89.47
2018-05-10T09:46:45.482Z,89.76
2018-05-10T09:48:07.737Z,90.54
2018-05-10T09:49:30.315Z,90.64
2018-05-10T09:50:52.546Z,88.65
2018-05-10T09:52:15.391Z,87.29
2018-05-10T09:53:37.337Z,86.61
2018-05-10T09:54:59.927Z,87.19
2018-05-10T09:56:22.201Z,87.38
2018-05-10T09:57:44.762Z,87.29
2018-05-10T09:59:07.015Z,87.92
2018-05-10T10:00:29.253Z,87.05
2018-05-10T10:01:51.511Z,88.89
2018-05-10T10:03:14.022Z,88.17
2018-05-10T10:04:36.670Z,88.9
2018-05-10T10:05:58.916Z,89.77
2018-05-10T10:07:21.283Z,91.03
2018-05-10T10:08:43.544Z,91.96
2018-05-10T10:10:06.092Z,91.96
2018-05-10T10:11:28.036Z,93.46
2018-05-10T10:12:50.918Z,92.68
2018-05-10T10:14:13.134Z,93.17
2018-05-10T10:15:35.455Z,93.26
2018-05-10T10:16:58.360Z,92.3
2018-05-10T10:18:20.902Z,93.46
2018-05-10T10:19:43.118Z,93.94
2018-05-10T10:21:05.687Z,93.31
2018-05-10T10:22:27.910Z,92.34
2018-05-10T10:23:50.260Z,92.49
2018-05-10T10:25:12.969Z,94.13
2018-05-10T10:26:35.717Z,94.62
2018-05-10T10:27:58.503Z,92.49
2018-05-10T10:29:21.004Z,93.26
2018-05-10T10:30:43.238Z,94.96
2018-05-10T10:32:05.445Z,95.25
2018-05-10T10:33:28.198Z,94.28
2018-05-10T10:34:50.465Z,93.8
2018-05-10T10:36:12.825Z,97.14
2018-05-10T10:37:35.354Z,94.82
2018-05-10T10:38:57.562Z,96.07
2018-05-10T10:40:19.945Z,95.3
2018-05-10T10:41:42.199Z,95.3
2018-05-10T10:43:04.732Z,97.42
2018-05-10T10:44:26.991Z,97.04
2018-05-10T10:45:49.169Z,97.04
2018-05-10T10:47:12.092Z,96.8
2018-05-10T10:48:34.672Z,97.91
2018-05-10T10:49:57.479Z,95.3
2018-05-10T10:51:20.013Z,96.46
2018-05-10T10:52:42.643Z,97.72
2018-05-10T10:54:05.591Z,97.19
2018-05-10T10:55:27.550Z,97.47
2018-05-10T10:56:49.883Z,97.86
2018-05-10T10:58:11.839Z,97.09
2018-05-10T10:59:34.118Z,98.44
2018-05-10T11:00:56.763Z,98.35
2018-05-10T11:02:19.223Z,97.77
2018-05-10T11:03:41.165Z,98
2018-05-10T11:05:03.841Z,97.72
2018-05-10T11:06:26.403Z,97.77
2018-05-10T11:07:48.384Z,97.91
2018-05-10T11:09:11.008Z,95.3
2018-05-10T11:10:33.738Z,94.57
2018-05-10T11:11:55.426Z,96.17
2018-05-10T11:13:17.999Z,98.2
2018-05-10T11:14:40.255Z,96.17
2018-05-10T11:16:02.194Z,95.34
2018-05-10T11:17:24.429Z,96.12
2018-05-10T11:18:46.033Z,94.48
2018-05-10T11:20:08.873Z,94.52
2018-05-10T11:21:31.119Z,95.01
2018-05-10T11:22:53.057Z,93.99
2018-05-10T11:24:15.314Z,92.29
2018-05-10T11:25:37.567Z,90.69
2018-05-10T11:27:00.130Z,89.47
2018-05-10T11:28:22.390Z,88.16
2018-05-10T11:29:44.726Z,86.94
2018-05-10T11:31:07.375Z,85
2018-05-10T11:32:29.361Z,84.27
2018-05-10T11:33:52.259Z,86.85
2018-05-10T11:35:14.839Z,85.35
2018-05-10T11:36:37.104Z,86.46
2018-05-10T11:37:58.821Z,86.32
2018-05-10T11:39:21.074Z,85.88
2018-05-10T11:40:43.662Z,84.71
2018-05-10T11:42:06.250Z,84.22
2018-05-10T11:43:28.836Z,83.2
2018-05-10T11:44:51.359Z,84.85
2018-05-10T11:46:13.558Z,84.66
2018-05-10T11:47:36.140Z,84.94
2018-05-10T11:48:58.413Z,85.68
2018-05-10T11:50:21.051Z,86.07
2018-05-10T11:51:43.303Z,84.71
2018-05-10T11:53:05.836Z,85.1
2018-05-10T11:54:28.125Z,85.97
2018-05-10T11:55:50.399Z,86.99
2018-05-10T11:57:12.720Z,87.24
2018-05-10T11:58:35.429Z,86.47
2018-05-10T11:59:57.945Z,87.2
2018-05-10T12:01:19.927Z,88.07
2018-05-10T12:02:42.686Z,88.81
2018-05-10T12:04:04.611Z,88.32
2018-05-10T12:05:26.870Z,89.73
2018-05-10T12:06:48.850Z,90.8
2018-05-10T12:08:11.685Z,92.4
2018-05-10T12:09:34.264Z,91.58
2018-05-10T12:10:56.514Z,92.93
2018-05-10T12:12:18.481Z,92.98
2018-05-10T12:13:40.117Z,93.85
2018-05-10T12:15:02.667Z,93.95
2018-05-10T12:16:25.243Z,93.95
2018-05-10T12:17:47.465Z,93.9
2018-05-10T12:19:09.446Z,96.61
2018-05-10T12:20:31.971Z,97.14
2018-05-10T12:21:54.167Z,96.84
2018-05-10T12:23:16.438Z,97.86
2018-05-10T12:24:38.696Z,96.61
2018-05-10T12:26:00.964Z,97.57
2018-05-10T12:27:23.459Z,97.28
2018-05-10T12:28:45.716Z,98.2
2018-05-10T12:30:07.864Z,96.84
2018-05-10T12:31:30.228Z,97.24
2018-05-10T12:32:52.737Z,96.8
2018-05-10T12:34:15.545Z,98.63
2018-05-10T12:35:38.094Z,99.99
2018-05-10T12:37:00.379Z,99.93
2018-05-10T12:38:22.638Z,99.45
2018-05-10T12:39:45.015Z,98.97
2018-05-10T12:41:07.336Z,98.44
2018-05-10T12:42:29.848Z,98.63
2018-05-10T12:43:52.132Z,98.1
2018-05-10T12:45:14.388Z,98.49
2018-05-10T12:46:36.916Z,98.92
2018-05-10T12:47:59.164Z,99.98
2018-05-10T12:49:21.419Z,99.99
2018-05-10T12:50:43.658Z,99.35
2018-05-10T12:52:05.979Z,99.99
2018-05-10T12:53:28.245Z,99.99
2018-05-10T12:54:50.719Z,99.99
2018-05-10T12:56:13.406Z,99.99
2018-05-10T12:57:35.734Z,99.93
2018-05-10T12:58:57.703Z,99.64
2018-05-10T13:00:20.224Z,98.58
2018-05-10T13:01:42.173Z,98.29
2018-05-10T13:03:04.446Z,98.77
2018-05-10T13:04:26.717Z,99.35
2018-05-10T13:05:49.059Z,99.99
2018-05-10T13:07:10.965Z,99.99
2018-05-10T13:08:33.427Z,99.99
2018-05-10T13:09:55.913Z,99.99
2018-05-10T13:11:17.855Z,99.99
2018-05-10T13:12:40.125Z,99.99
2018-05-10T13:14:02.363Z,99.99
2018-05-10T13:15:24.641Z,99.99
2018-05-10T13:16:46.302Z,99.99
2018-05-10T13:18:08.574Z,99.99
2018-05-10T13:19:30.609Z,99.99
2018-05-10T13:20:52.836Z,99.99
2018-05-10T13:22:15.410Z,99.99
2018-05-10T13:23:37.623Z,99.99
2018-05-10T13:24:59.892Z,99.99
2018-05-10T13:26:22.439Z,99.99
2018-05-10T13:27:45.005Z,99.99
2018-05-10T13:29:06.979Z,99.99
2018-05-10T13:30:29.230Z,99.99
2018-05-10T13:31:51.529Z,99.99
2018-05-10T13:33:14.079Z,99.99
2018-05-10T13:34:36.368Z,99.99
2018-05-10T13:35:58.256Z,99.99
2018-05-10T13:37:20.525Z,99.99
2018-05-10T13:38:42.157Z,99.99
2018-05-10T13:40:04.123Z,99.99
2018-05-10T13:41:26.377Z,99.99
2018-05-10T13:42:48.686Z,99.99
2018-05-10T13:44:10.587Z,99.99
2018-05-10T13:45:33.136Z,99.99
2018-05-10T13:46:55.324Z,99.99
2018-05-10T13:48:17.934Z,99.99
2018-05-10T13:49:39.873Z,99.99
2018-05-10T13:51:02.441Z,99.99
2018-05-10T13:52:24.969Z,99.99
2018-05-10T13:53:47.194Z,99.99
2018-05-10T13:55:09.456Z,99.99
2018-05-10T13:56:31.653Z,99.99
2018-05-10T13:57:53.848Z,99.99
2018-05-10T13:59:16.392Z,99.99
2018-05-10T14:00:38.937Z,99.99
2018-05-10T14:02:01.496Z,99.99
2018-05-10T14:03:23.759Z,99.99
2018-05-10T14:04:46.288Z,99.99
2018-05-10T14:06:08.833Z,99.99
2018-05-10T14:07:31.599Z,99.99
2018-05-10T14:08:53.895Z,99.99
2018-05-10T14:10:15.994Z,99.99
2018-05-10T14:11:38.109Z,99.99
2018-05-10T14:13:00.246Z,99.99
2018-05-10T14:14:21.822Z,99.99
2018-05-10T14:15:43.947Z,99.99
2018-05-10T14:17:05.839Z,99.99
2018-05-10T14:18:27.947Z,99.99
2018-05-10T14:19:49.591Z,99.99
2018-05-10T14:21:11.258Z,99.99
2018-05-10T14:22:33.408Z,99.99
2018-05-10T14:23:55.550Z,99.99
2018-05-10T14:25:17.747Z,99.99
2018-05-10T14:26:40.176Z,99.99
2018-05-10T14:28:02.023Z,99.99
2018-05-10T14:29:24.175Z,99.99
2018-05-10T14:30:46.013Z,99.99
2018-05-10T14:32:07.851Z,99.99
2018-05-10T14:33:30.013Z,99.99
2018-05-10T14:34:51.863Z,99.99
2018-05-10T14:36:13.986Z,99.99
2018-05-10T14:37:35.828Z,99.99
2018-05-10T14:38:57.950Z,99.99
2018-05-10T14:40:20.086Z,99.99
2018-05-10T14:41:41.941Z,99.99
2018-05-10T14:43:04.047Z,99.99
2018-05-10T14:44:26.164Z,99.99
2018-05-10T14:45:48.294Z,99.99
2018-05-10T14:47:10.435Z,99.99
2018-05-10T14:48:32.558Z,99.99
2018-05-10T14:49:54.676Z,99.99
2018-05-10T14:51:16.797Z,99.99
2018-05-10T14:52:38.913Z,99.99
2018-05-10T14:54:00.771Z,99.99
2018-05-10T14:55:22.739Z,99.99
2018-05-10T14:56:44.841Z,99.99
2018-05-10T14:58:06.672Z,99.99
2018-05-10T14:59:28.753Z,99.99
2018-05-10T15:00:51.033Z,99.99
2018-05-10T15:02:12.896Z,99.99
2018-05-10T15:03:34.984Z,99.99
2018-05-10T15:04:56.834Z,99.99
2018-05-10T15:06:18.959Z,99.99
2018-05-10T15:07:41.068Z,99.99
2018-05-10T15:09:02.903Z,99.99
2018-05-10T15:10:25.085Z,99.99
2018-05-10T15:11:47.214Z,99.99
2018-05-10T15:13:09.055Z,99.99
2018-05-10T15:14:31.141Z,99.99
2018-05-10T15:15:53.227Z,99.99
2018-05-10T15:17:15.338Z,99.99
2018-05-10T15:18:37.407Z,99.99
2018-05-10T15:19:59.241Z,99.99
2018-05-10T15:21:20.853Z,99.99
2018-05-10T15:22:42.721Z,99.99
2018-05-10T15:24:04.548Z,99.99
2018-05-10T15:25:26.679Z,99.99
2018-05-10T15:26:48.768Z,99.99
2018-05-10T15:28:10.600Z,99.99
2018-05-10T15:29:32.428Z,99.99
2018-05-10T15:30:54.277Z,99.99
2018-05-10T15:32:16.148Z,99.99
2018-05-10T15:33:38.259Z,99.99
2018-05-10T15:35:00.373Z,99.99
2018-05-10T15:36:22.196Z,99.99
2018-05-10T15:37:44.278Z,99.99
2018-05-10T15:39:05.921Z,99.99
2018-05-10T15:40:28.129Z,99.99
2018-05-10T15:41:50.055Z,99.99
2018-05-10T15:43:11.896Z,99.99
2018-05-10T15:44:33.728Z,99.99
2018-05-10T15:45:55.883Z,99.99
2018-05-10T15:47:18.003Z,99.99
2018-05-10T15:48:39.845Z,99.99
2018-05-10T15:50:01.691Z,99.99
2018-05-10T15:51:23.851Z,99.99
2018-05-10T15:52:45.955Z,99.99
2018-05-10T15:54:07.826Z,99.99
2018-05-10T15:55:29.690Z,99.2
2018-05-10T15:56:51.528Z,98.91
2018-05-10T15:58:13.648Z,98.58
2018-05-10T15:59:35.532Z,97.47
2018-05-10T16:00:57.638Z,98.62
2018-05-10T16:02:19.464Z,99.87
2018-05-10T16:03:41.304Z,99.99
2018-05-10T16:05:03.408Z,97.66
2018-05-10T16:06:24.980Z,97.76
2018-05-10T16:07:47.101Z,97.47
2018-05-10T16:09:09.219Z,96.89
2018-05-10T16:10:31.336Z,96.13
2018-05-10T16:11:53.456Z,96.13
2018-05-10T16:13:15.600Z,97.52
2018-05-10T16:14:37.440Z,98
2018-05-10T16:15:59.296Z,97.24
2018-05-10T16:17:21.121Z,96.27
2018-05-10T16:18:42.941Z,95.7
2018-05-10T16:20:05.034Z,95.31
2018-05-10T16:21:27.127Z,93.77
2018-05-10T16:22:49.232Z,93.87
2018-05-10T16:24:11.072Z,94.74
2018-05-10T16:25:33.174Z,94.45
2018-05-10T16:26:55.016Z,94.64
2018-05-10T16:28:16.907Z,95.75
2018-05-10T16:29:38.736Z,95.94
2018-05-10T16:31:00.859Z,97.09
2018-05-10T16:32:22.985Z,97.95
2018-05-10T16:33:45.288Z,99.2
2018-05-10T16:35:07.188Z,99.91
2018-05-10T16:36:29.295Z,99.99
2018-05-10T16:37:51.144Z,99.82
2018-05-10T16:39:12.994Z,99.05
2018-05-10T16:40:34.685Z,99.34
2018-05-10T16:41:56.524Z,99.99
2018-05-10T16:43:17.804Z,99.99
2018-05-10T16:44:39.111Z,99.99
2018-05-10T16:46:01.240Z,99.99
2018-05-10T16:47:23.118Z,99.99
2018-05-10T16:48:45.197Z,99.99
2018-05-10T16:50:07.299Z,99.99
2018-05-10T16:51:29.394Z,99.99
2018-05-10T16:52:51.209Z,99.99
2018-05-10T16:54:13.274Z,99.99
2018-05-10T16:55:35.106Z,99.99
2018-05-10T16:56:56.977Z,99.99
2018-05-10T16:58:19.060Z,99.99
2018-05-10T16:59:41.186Z,99.99
2018-05-10T17:01:03.303Z,99.99
2018-05-10T17:02:25.413Z,99.99
2018-05-10T17:03:47.567Z,99.99
2018-05-10T17:05:09.685Z,99.99
2018-05-10T17:06:31.539Z,99.99
2018-05-10T17:07:53.640Z,99.99
2018-05-10T17:09:15.474Z,99.99
2018-05-10T17:10:37.620Z,99.99
2018-05-10T17:11:59.709Z,99.99
2018-05-10T17:13:21.815Z,99.99
2018-05-10T17:14:43.914Z,99.99
2018-05-10T17:16:05.493Z,99.99
2018-05-10T17:17:27.309Z,99.99
2018-05-10T17:18:49.403Z,99.99
2018-05-10T17:20:11.225Z,99.99
2018-05-10T17:21:33.059Z,99.99
2018-05-10T17:22:55.154Z,99.99
2018-05-10T17:24:17.254Z,99.99
2018-05-10T17:25:38.551Z,99.99
2018-05-10T17:26:59.855Z,99.99
2018-05-10T17:28:21.963Z,99.99
2018-05-10T17:29:43.547Z,99.99
2018-05-10T17:31:05.359Z,99.99
2018-05-10T17:32:27.557Z,99.99
2018-05-10T17:33:49.663Z,99.99
2018-05-10T17:35:11.843Z,99.99
2018-05-10T17:36:33.955Z,99.99
2018-05-10T17:37:56.080Z,99.99
2018-05-10T17:39:17.943Z,99.99